sensor_id;sensor_type;location;lat;lon;timestamp;pressure;altitude;pressure_sealevel;temperature;humidity
5455;BME280;2750;49.050;9.250;2023-04-28T00:02:38;98599.47;;;14.29;76.67
5455;BME280;2750;49.050;9.250;2023-04-28T00:07:41;98587.94;;;14.19;76.99
5455;BME280;2750;49.050;9.250;2023-04-28T00:12:42;98585.38;;;14.05;78.04
5455;BME280;2750;49.050;9.250;2023-04-28T00:17:44;98576.63;;;14.06;78.05
5455;BME280;2750;49.050;9.250;2023-04-28T00:22:46;98567.22;;;14.03;78.86
5455;BME280;2750;49.050;9.250;2023-04-28T00:27:48;98582.06;;;14.03;78.35
5455;BME280;2750;49.050;9.250;2023-04-28T00:32:50;98579.06;;;14.35;77.06
5455;BME280;2750;49.050;9.250;2023-04-28T00:37:53;98574.41;;;14.53;76.15
5455;BME280;2750;49.050;9.250;2023-04-28T00:42:54;98570.69;;;14.82;76.09
5455;BME280;2750;49.050;9.250;2023-04-28T00:47:56;98568.28;;;14.79;77.31
5455;BME280;2750;49.050;9.250;2023-04-28T00:53:00;98564.22;;;15.01;76.76
5455;BME280;2750;49.050;9.250;2023-04-28T00:58:02;98553.72;;;14.50;78.81
5455;BME280;2750;49.050;9.250;2023-04-28T01:03:05;98556.84;;;14.43;79.19
5455;BME280;2750;49.050;9.250;2023-04-28T01:08:08;98544.06;;;14.38;79.47
5455;BME280;2750;49.050;9.250;2023-04-28T01:13:09;98552.41;;;13.63;83.33
5455;BME280;2750;49.050;9.250;2023-04-28T01:18:11;98534.66;;;13.55;84.98
5455;BME280;2750;49.050;9.250;2023-04-28T01:23:16;98536.31;;;13.97;83.02
5455;BME280;2750;49.050;9.250;2023-04-28T01:28:19;98541.66;;;13.81;84.75
5455;BME280;2750;49.050;9.250;2023-04-28T01:33:20;98523.31;;;14.10;84.81
5455;BME280;2750;49.050;9.250;2023-04-28T01:38:22;98514.41;;;14.00;85.13
5455;BME280;2750;49.050;9.250;2023-04-28T01:43:25;98541.59;;;13.83;86.66
5455;BME280;2750;49.050;9.250;2023-04-28T01:48:26;98524.53;;;13.77;86.23
5455;BME280;2750;49.050;9.250;2023-04-28T01:53:28;98513.53;;;13.86;85.34
5455;BME280;2750;49.050;9.250;2023-04-28T01:58:30;98513.06;;;13.80;84.70
5455;BME280;2750;49.050;9.250;2023-04-28T02:03:32;98498.94;;;13.97;85.30
5455;BME280;2750;49.050;9.250;2023-04-28T02:08:33;98496.47;;;14.08;85.25
5455;BME280;2750;49.050;9.250;2023-04-28T02:13:36;98505.44;;;14.04;84.85
5455;BME280;2750;49.050;9.250;2023-04-28T02:18:38;98505.28;;;14.19;83.72
5455;BME280;2750;49.050;9.250;2023-04-28T02:23:39;98486.63;;;14.25;83.50
5455;BME280;2750;49.050;9.250;2023-04-28T02:28:42;98500.34;;;14.02;85.00
5455;BME280;2750;49.050;9.250;2023-04-28T02:33:43;98494.47;;;14.38;84.06
5455;BME280;2750;49.050;9.250;2023-04-28T02:38:45;98487.31;;;14.54;84.23
5455;BME280;2750;49.050;9.250;2023-04-28T02:43:48;98490.84;;;14.41;83.98
5455;BME280;2750;49.050;9.250;2023-04-28T02:48:49;98499.84;;;14.10;86.98
5455;BME280;2750;49.050;9.250;2023-04-28T02:53:51;98487.88;;;14.32;86.20
5455;BME280;2750;49.050;9.250;2023-04-28T02:58:53;98491.06;;;14.63;85.25
5455;BME280;2750;49.050;9.250;2023-04-28T03:03:55;98482.38;;;14.50;85.27
5455;BME280;2750;49.050;9.250;2023-04-28T03:08:56;98485.66;;;14.26;84.55
5455;BME280;2750;49.050;9.250;2023-04-28T03:13:59;98484.16;;;14.49;85.68
5455;BME280;2750;49.050;9.250;2023-04-28T03:19:01;98494.47;;;14.38;86.50
5455;BME280;2750;49.050;9.250;2023-04-28T03:24:03;98478.84;;;14.63;86.78
5455;BME280;2750;49.050;9.250;2023-04-28T03:29:06;98469.13;;;14.53;87.34
5455;BME280;2750;49.050;9.250;2023-04-28T03:34:07;98455.94;;;14.42;88.72
5455;BME280;2750;49.050;9.250;2023-04-28T03:39:09;98428.50;;;14.36;88.67
5455;BME280;2750;49.050;9.250;2023-04-28T03:44:12;98427.19;;;13.64;90.69
5455;BME280;2750;49.050;9.250;2023-04-28T03:49:13;98429.88;;;13.36;93.10
5455;BME280;2750;49.050;9.250;2023-04-28T03:54:15;98436.13;;;13.33;94.78
5455;BME280;2750;49.050;9.250;2023-04-28T03:59:20;98433.25;;;13.77;92.98
5455;BME280;2750;49.050;9.250;2023-04-28T04:04:22;98420.63;;;13.71;93.12
5455;BME280;2750;49.050;9.250;2023-04-28T04:09:23;98428.81;;;13.26;94.09
5455;BME280;2750;49.050;9.250;2023-04-28T04:14:26;98436.03;;;13.62;93.95
5455;BME280;2750;49.050;9.250;2023-04-28T04:19:28;98430.53;;;14.06;91.67
5455;BME280;2750;49.050;9.250;2023-04-28T04:24:29;98442.66;;;14.32;90.13
5455;BME280;2750;49.050;9.250;2023-04-28T04:29:32;98438.09;;;14.61;89.45
5455;BME280;2750;49.050;9.250;2023-04-28T04:34:34;98432.16;;;14.71;88.51
5455;BME280;2750;49.050;9.250;2023-04-28T04:39:39;98431.41;;;14.95;87.57
5455;BME280;2750;49.050;9.250;2023-04-28T04:44:43;98426.97;;;15.08;88.07
5455;BME280;2750;49.050;9.250;2023-04-28T04:49:45;98431.78;;;15.01;87.66
5455;BME280;2750;49.050;9.250;2023-04-28T04:54:46;98423.25;;;15.23;86.70
5455;BME280;2750;49.050;9.250;2023-04-28T04:59:49;98415.19;;;15.26;86.04
5455;BME280;2750;49.050;9.250;2023-04-28T05:04:51;98419.88;;;15.10;84.70
5455;BME280;2750;49.050;9.250;2023-04-28T05:09:52;98422.44;;;15.22;85.07
5455;BME280;2750;49.050;9.250;2023-04-28T05:14:55;98403.41;;;15.20;84.23
5455;BME280;2750;49.050;9.250;2023-04-28T05:19:57;98406.13;;;15.55;83.60
5455;BME280;2750;49.050;9.250;2023-04-28T05:24:58;98404.47;;;15.54;83.53
5455;BME280;2750;49.050;9.250;2023-04-28T05:30:01;98396.38;;;15.81;81.99
5455;BME280;2750;49.050;9.250;2023-04-28T05:35:03;98394.34;;;15.85;82.01
5455;BME280;2750;49.050;9.250;2023-04-28T05:40:06;98400.78;;;15.92;81.07
5455;BME280;2750;49.050;9.250;2023-04-28T05:45:10;98408.88;;;15.89;81.39
5455;BME280;2750;49.050;9.250;2023-04-28T05:50:12;98411.56;;;16.11;81.53
5455;BME280;2750;49.050;9.250;2023-04-28T05:55:13;98399.03;;;15.68;82.05
5455;BME280;2750;49.050;9.250;2023-04-28T06:00:17;98407.78;;;15.56;82.14
5455;BME280;2750;49.050;9.250;2023-04-28T06:05:18;98413.28;;;15.64;82.07
5455;BME280;2750;49.050;9.250;2023-04-28T06:10:20;98420.00;;;15.32;85.26
5455;BME280;2750;49.050;9.250;2023-04-28T06:15:23;98422.72;;;15.30;85.76
5455;BME280;2750;49.050;9.250;2023-04-28T06:20:25;98432.41;;;15.17;88.38
5455;BME280;2750;49.050;9.250;2023-04-28T06:25:26;98440.25;;;15.41;88.07
5455;BME280;2750;49.050;9.250;2023-04-28T06:30:29;98430.47;;;15.32;89.41
5455;BME280;2750;49.050;9.250;2023-04-28T06:35:31;98425.50;;;15.04;90.51
5455;BME280;2750;49.050;9.250;2023-04-28T06:40:38;98422.25;;;15.13;91.35
5455;BME280;2750;49.050;9.250;2023-04-28T06:45:43;98420.00;;;15.32;91.76
5455;BME280;2750;49.050;9.250;2023-04-28T06:50:45;98417.66;;;15.16;92.32
5455;BME280;2750;49.050;9.250;2023-04-28T06:55:46;98415.88;;;15.17;92.32
5455;BME280;2750;49.050;9.250;2023-04-28T07:00:49;98414.47;;;15.24;93.10
5455;BME280;2750;49.050;9.250;2023-04-28T07:05:51;98402.09;;;15.39;93.00
5455;BME280;2750;49.050;9.250;2023-04-28T07:10:52;98422.25;;;15.49;93.14
5455;BME280;2750;49.050;9.250;2023-04-28T07:15:55;98420.72;;;15.70;92.95
5455;BME280;2750;49.050;9.250;2023-04-28T07:20:57;98427.91;;;15.91;92.59
5455;BME280;2750;49.050;9.250;2023-04-28T07:25:58;98422.53;;;15.81;93.12
5455;BME280;2750;49.050;9.250;2023-04-28T07:31:01;98410.22;;;15.94;93.26
5455;BME280;2750;49.050;9.250;2023-04-28T07:36:03;98409.69;;;16.13;92.88
5455;BME280;2750;49.050;9.250;2023-04-28T07:41:05;98417.94;;;15.96;93.56
5455;BME280;2750;49.050;9.250;2023-04-28T07:46:08;98421.63;;;15.93;93.56
5455;BME280;2750;49.050;9.250;2023-04-28T07:51:09;98420.16;;;16.13;93.16
5455;BME280;2750;49.050;9.250;2023-04-28T07:56:11;98423.81;;;16.10;93.36
5455;BME280;2750;49.050;9.250;2023-04-28T08:01:14;98425.94;;;16.40;93.67
5455;BME280;2750;49.050;9.250;2023-04-28T08:06:16;98418.75;;;16.20;94.57
5455;BME280;2750;49.050;9.250;2023-04-28T08:11:18;98409.78;;;16.57;94.34
5455;BME280;2750;49.050;9.250;2023-04-28T08:16:22;98395.00;;;16.67;94.15
5455;BME280;2750;49.050;9.250;2023-04-28T08:21:23;98400.63;;;16.74;94.50
5455;BME280;2750;49.050;9.250;2023-04-28T08:26:26;98412.16;;;16.60;95.71
5455;BME280;2750;49.050;9.250;2023-04-28T08:31:31;98427.19;;;16.81;95.42
5455;BME280;2750;49.050;9.250;2023-04-28T08:36:33;98427.41;;;16.89;94.56
5455;BME280;2750;49.050;9.250;2023-04-28T08:41:37;98442.19;;;16.90;94.01
5455;BME280;2750;49.050;9.250;2023-04-28T08:46:42;98450.31;;;16.41;95.39
5455;BME280;2750;49.050;9.250;2023-04-28T08:51:45;98459.56;;;17.02;94.22
5455;BME280;2750;49.050;9.250;2023-04-28T08:56:50;98452.91;;;17.09;92.83
5455;BME280;2750;49.050;9.250;2023-04-28T09:01:53;98467.78;;;17.31;94.14
5455;BME280;2750;49.050;9.250;2023-04-28T09:06:56;98442.81;;;18.01;92.11
5455;BME280;2750;49.050;9.250;2023-04-28T09:11:59;98439.22;;;18.02;91.38
5455;BME280;2750;49.050;9.250;2023-04-28T09:17:09;98436.41;;;17.62;93.24
5455;BME280;2750;49.050;9.250;2023-04-28T09:22:11;98421.44;;;17.74;93.40
5455;BME280;2750;49.050;9.250;2023-04-28T09:27:12;98421.50;;;17.84;93.80
5455;BME280;2750;49.050;9.250;2023-04-28T09:32:17;98424.34;;;17.92;94.01
5455;BME280;2750;49.050;9.250;2023-04-28T09:37:21;98432.03;;;18.67;92.85
5455;BME280;2750;49.050;9.250;2023-04-28T09:42:33;98439.13;;;18.96;90.32
5455;BME280;2750;49.050;9.250;2023-04-28T09:47:37;98436.25;;;18.79;90.75
5455;BME280;2750;49.050;9.250;2023-04-28T09:52:40;98429.47;;;18.76;91.41
5455;BME280;2750;49.050;9.250;2023-04-28T09:57:43;98423.66;;;18.73;91.54
5455;BME280;2750;49.050;9.250;2023-04-28T10:02:48;98421.19;;;18.09;93.33
5455;BME280;2750;49.050;9.250;2023-04-28T10:07:51;98426.91;;;18.03;94.80
5455;BME280;2750;49.050;9.250;2023-04-28T10:12:55;98420.31;;;17.88;95.56
5455;BME280;2750;49.050;9.250;2023-04-28T10:17:59;98421.66;;;18.03;95.85
5455;BME280;2750;49.050;9.250;2023-04-28T10:23:16;98413.50;;;18.58;94.10
5455;BME280;2750;49.050;9.250;2023-04-28T10:28:24;98412.44;;;18.29;95.58
5455;BME280;2750;49.050;9.250;2023-04-28T10:33:27;98408.06;;;18.81;94.01
5455;BME280;2750;49.050;9.250;2023-04-28T10:38:32;98415.56;;;18.95;94.34
5455;BME280;2750;49.050;9.250;2023-04-28T10:43:35;98398.22;;;18.52;94.46
5455;BME280;2750;49.050;9.250;2023-04-28T10:48:56;98408.16;;;19.49;93.79
5455;BME280;2750;49.050;9.250;2023-04-28T10:54:13;98415.69;;;19.24;93.44
5455;BME280;2750;49.050;9.250;2023-04-28T10:59:32;98429.84;;;18.62;94.79
5455;BME280;2750;49.050;9.250;2023-04-28T11:05:11;98427.31;;;18.60;96.77
5455;BME280;2750;49.050;9.250;2023-04-28T11:10:13;98436.94;;;18.09;98.24
5455;BME280;2750;49.050;9.250;2023-04-28T11:15:15;98430.56;;;17.91;99.42
5455;BME280;2750;49.050;9.250;2023-04-28T11:20:20;98423.25;;;17.94;99.29
5455;BME280;2750;49.050;9.250;2023-04-28T11:25:25;98423.28;;;17.62;100.00
5455;BME280;2750;49.050;9.250;2023-04-28T11:30:26;98421.03;;;17.79;100.00
5455;BME280;2750;49.050;9.250;2023-04-28T11:35:40;98416.06;;;18.28;100.00
5455;BME280;2750;49.050;9.250;2023-04-28T11:40:55;98411.09;;;18.14;100.00
5455;BME280;2750;49.050;9.250;2023-04-28T11:45:57;98406.63;;;19.07;100.00
5455;BME280;2750;49.050;9.250;2023-04-28T11:50:59;98411.25;;;18.84;99.91
5455;BME280;2750;49.050;9.250;2023-04-28T11:56:04;98407.88;;;18.73;100.00
5455;BME280;2750;49.050;9.250;2023-04-28T12:01:08;98403.78;;;18.59;100.00
5455;BME280;2750;49.050;9.250;2023-04-28T12:06:15;98397.84;;;18.87;100.00
5455;BME280;2750;49.050;9.250;2023-04-28T12:11:17;98404.03;;;18.77;100.00
5455;BME280;2750;49.050;9.250;2023-04-28T12:16:36;98406.72;;;18.96;99.06
5455;BME280;2750;49.050;9.250;2023-04-28T12:21:41;98410.25;;;18.76;99.83
5455;BME280;2750;49.050;9.250;2023-04-28T12:26:42;98413.91;;;18.63;100.00
5455;BME280;2750;49.050;9.250;2023-04-28T12:31:47;98420.72;;;18.45;100.00
5455;BME280;2750;49.050;9.250;2023-04-28T12:36:51;98434.06;;;17.80;100.00
5455;BME280;2750;49.050;9.250;2023-04-28T12:41:52;98436.41;;;17.51;100.00
5455;BME280;2750;49.050;9.250;2023-04-28T12:46:54;98427.09;;;17.58;100.00
5455;BME280;2750;49.050;9.250;2023-04-28T12:51:57;98426.22;;;17.69;100.00
5455;BME280;2750;49.050;9.250;2023-04-28T12:56:59;98431.44;;;17.80;98.89
5455;BME280;2750;49.050;9.250;2023-04-28T13:02:01;98424.34;;;18.75;96.47
5455;BME280;2750;49.050;9.250;2023-04-28T13:07:04;98407.91;;;20.00;92.89
5455;BME280;2750;49.050;9.250;2023-04-28T13:12:06;98407.59;;;20.03;92.08
5455;BME280;2750;49.050;9.250;2023-04-28T13:17:08;98404.97;;;19.94;92.76
5455;BME280;2750;49.050;9.250;2023-04-28T13:22:11;98396.09;;;20.33;91.57
5455;BME280;2750;49.050;9.250;2023-04-28T13:27:12;98401.63;;;20.11;91.38
5455;BME280;2750;49.050;9.250;2023-04-28T13:32:14;98389.84;;;19.86;93.59
5455;BME280;2750;49.050;9.250;2023-04-28T13:37:16;98385.53;;;20.14;94.20
5455;BME280;2750;49.050;9.250;2023-04-28T13:42:18;98377.03;;;21.40;91.74
5455;BME280;2750;49.050;9.250;2023-04-28T13:47:19;98378.47;;;21.70;90.19
5455;BME280;2750;49.050;9.250;2023-04-28T13:52:22;98373.69;;;21.74;89.38
5455;BME280;2750;49.050;9.250;2023-04-28T13:57:24;98375.06;;;22.91;87.34
5455;BME280;2750;49.050;9.250;2023-04-28T14:02:25;98355.94;;;23.87;84.71
5455;BME280;2750;49.050;9.250;2023-04-28T14:07:28;98346.34;;;24.18;82.94
5455;BME280;2750;49.050;9.250;2023-04-28T14:12:29;98342.75;;;22.27;84.82
5455;BME280;2750;49.050;9.250;2023-04-28T14:17:31;98339.28;;;21.66;88.80
5455;BME280;2750;49.050;9.250;2023-04-28T14:22:35;98320.00;;;22.09;88.57
5455;BME280;2750;49.050;9.250;2023-04-28T14:27:36;98312.19;;;21.81;88.24
5455;BME280;2750;49.050;9.250;2023-04-28T14:32:38;98312.19;;;21.99;89.40
5455;BME280;2750;49.050;9.250;2023-04-28T14:37:41;98314.03;;;21.89;88.19
5455;BME280;2750;49.050;9.250;2023-04-28T14:42:43;98308.00;;;21.18;90.42
5455;BME280;2750;49.050;9.250;2023-04-28T14:47:45;98314.81;;;20.66;91.35
5455;BME280;2750;49.050;9.250;2023-04-28T14:52:49;98317.72;;;20.90;91.64
5455;BME280;2750;49.050;9.250;2023-04-28T14:57:50;98304.97;;;21.13;90.86
5455;BME280;2750;49.050;9.250;2023-04-28T15:02:52;98311.06;;;20.86;91.61
5455;BME280;2750;49.050;9.250;2023-04-28T15:07:54;98317.50;;;21.01;91.57
5455;BME280;2750;49.050;9.250;2023-04-28T15:12:56;98315.72;;;20.28;92.32
5455;BME280;2750;49.050;9.250;2023-04-28T15:17:57;98300.22;;;20.89;92.00
5455;BME280;2750;49.050;9.250;2023-04-28T15:23:01;98308.88;;;20.54;90.02
5455;BME280;2750;49.050;9.250;2023-04-28T15:28:03;98307.25;;;20.71;89.22
5455;BME280;2750;49.050;9.250;2023-04-28T15:33:06;98304.41;;;20.55;88.50
5455;BME280;2750;49.050;9.250;2023-04-28T15:38:09;98308.13;;;20.34;89.50
5455;BME280;2750;49.050;9.250;2023-04-28T15:43:11;98316.91;;;20.06;89.87
5455;BME280;2750;49.050;9.250;2023-04-28T15:48:12;98303.44;;;20.19;89.41
5455;BME280;2750;49.050;9.250;2023-04-28T15:53:15;98300.53;;;20.12;89.40
5455;BME280;2750;49.050;9.250;2023-04-28T15:58:17;98293.34;;;20.51;87.92
5455;BME280;2750;49.050;9.250;2023-04-28T16:03:19;98285.06;;;21.36;85.75
5455;BME280;2750;49.050;9.250;2023-04-28T16:08:22;98278.28;;;21.16;85.50
5455;BME280;2750;49.050;9.250;2023-04-28T16:13:24;98281.81;;;21.24;85.64
5455;BME280;2750;49.050;9.250;2023-04-28T16:18:26;98285.19;;;21.52;85.21
5455;BME280;2750;49.050;9.250;2023-04-28T16:23:29;98293.41;;;21.31;85.40
5455;BME280;2750;49.050;9.250;2023-04-28T16:28:31;98311.00;;;21.40;83.63
5455;BME280;2750;49.050;9.250;2023-04-28T16:33:32;98316.50;;;19.24;87.51
5455;BME280;2750;49.050;9.250;2023-04-28T16:38:35;98309.63;;;17.51;95.99
5455;BME280;2750;49.050;9.250;2023-04-28T16:43:37;98317.03;;;18.99;90.79
5455;BME280;2750;49.050;9.250;2023-04-28T16:48:38;98320.28;;;17.38;95.59
5455;BME280;2750;49.050;9.250;2023-04-28T16:53:41;98318.03;;;16.91;93.44
5455;BME280;2750;49.050;9.250;2023-04-28T16:58:42;98316.13;;;17.56;94.00
5455;BME280;2750;49.050;9.250;2023-04-28T17:03:44;98317.00;;;17.98;92.11
5455;BME280;2750;49.050;9.250;2023-04-28T17:08:47;98332.97;;;17.54;92.29
5455;BME280;2750;49.050;9.250;2023-04-28T17:13:49;98313.09;;;18.44;91.21
5455;BME280;2750;49.050;9.250;2023-04-28T17:18:50;98309.31;;;18.37;91.58
5455;BME280;2750;49.050;9.250;2023-04-28T17:23:54;98323.00;;;17.16;95.34
5455;BME280;2750;49.050;9.250;2023-04-28T17:28:57;98312.91;;;18.05;90.32
5455;BME280;2750;49.050;9.250;2023-04-28T17:33:59;98312.22;;;18.54;87.70
5455;BME280;2750;49.050;9.250;2023-04-28T17:39:01;98301.28;;;19.08;85.87
5455;BME280;2750;49.050;9.250;2023-04-28T17:44:03;98308.75;;;19.13;85.72
5455;BME280;2750;49.050;9.250;2023-04-28T17:49:05;98295.75;;;19.21;85.82
5455;BME280;2750;49.050;9.250;2023-04-28T17:54:09;98306.25;;;20.08;82.71
5455;BME280;2750;49.050;9.250;2023-04-28T17:59:10;98314.31;;;19.87;82.51
5455;BME280;2750;49.050;9.250;2023-04-28T18:04:13;98333.38;;;19.02;85.30
5455;BME280;2750;49.050;9.250;2023-04-28T18:09:16;98322.75;;;19.23;85.04
5455;BME280;2750;49.050;9.250;2023-04-28T18:14:18;98323.06;;;19.39;85.10
5455;BME280;2750;49.050;9.250;2023-04-28T18:19:19;98328.00;;;19.14;86.75
5455;BME280;2750;49.050;9.250;2023-04-28T18:24:23;98328.56;;;19.07;87.41
5455;BME280;2750;49.050;9.250;2023-04-28T18:29:24;98336.47;;;18.68;88.58
5455;BME280;2750;49.050;9.250;2023-04-28T18:34:26;98333.25;;;18.13;89.51
5455;BME280;2750;49.050;9.250;2023-04-28T18:39:29;98344.75;;;18.12;89.95
5455;BME280;2750;49.050;9.250;2023-04-28T18:44:30;98362.94;;;18.04;90.73
5455;BME280;2750;49.050;9.250;2023-04-28T18:49:32;98368.31;;;18.23;89.85
5455;BME280;2750;49.050;9.250;2023-04-28T18:54:35;98371.44;;;18.17;90.80
5455;BME280;2750;49.050;9.250;2023-04-28T18:59:36;98369.00;;;18.25;90.97
5455;BME280;2750;49.050;9.250;2023-04-28T19:04:38;98365.03;;;18.10;91.91
5455;BME280;2750;49.050;9.250;2023-04-28T19:09:42;98375.06;;;18.16;91.72
5455;BME280;2750;49.050;9.250;2023-04-28T19:14:44;98372.69;;;17.92;92.83
5455;BME280;2750;49.050;9.250;2023-04-28T19:19:45;98377.34;;;17.89;92.87
5455;BME280;2750;49.050;9.250;2023-04-28T19:24:48;98374.25;;;17.63;94.26
5455;BME280;2750;49.050;9.250;2023-04-28T19:29:49;98374.13;;;17.53;95.25
5455;BME280;2750;49.050;9.250;2023-04-28T19:34:51;98382.94;;;17.52;95.52
5455;BME280;2750;49.050;9.250;2023-04-28T19:39:53;98393.50;;;17.30;94.85
5455;BME280;2750;49.050;9.250;2023-04-28T19:44:56;98392.84;;;16.84;98.11
5455;BME280;2750;49.050;9.250;2023-04-28T19:49:58;98401.38;;;16.41;100.00
5455;BME280;2750;49.050;9.250;2023-04-28T19:55:01;98398.66;;;16.43;100.00
5455;BME280;2750;49.050;9.250;2023-04-28T20:00:04;98408.13;;;16.90;99.70
5455;BME280;2750;49.050;9.250;2023-04-28T20:05:06;98403.56;;;17.03;99.27
5455;BME280;2750;49.050;9.250;2023-04-28T20:10:10;98397.72;;;16.99;96.74
5455;BME280;2750;49.050;9.250;2023-04-28T20:15:12;98411.22;;;16.84;94.85
5455;BME280;2750;49.050;9.250;2023-04-28T20:20:15;98401.81;;;16.70;94.22
5455;BME280;2750;49.050;9.250;2023-04-28T20:25:18;98408.72;;;16.71;94.40
5455;BME280;2750;49.050;9.250;2023-04-28T20:30:20;98413.59;;;16.64;95.81
5455;BME280;2750;49.050;9.250;2023-04-28T20:35:21;98413.84;;;16.72;97.80
5455;BME280;2750;49.050;9.250;2023-04-28T20:40:25;98412.16;;;16.83;97.74
5455;BME280;2750;49.050;9.250;2023-04-28T20:45:26;98413.97;;;16.71;98.95
5455;BME280;2750;49.050;9.250;2023-04-28T20:50:28;98407.88;;;17.04;98.09
5455;BME280;2750;49.050;9.250;2023-04-28T20:55:33;98405.00;;;17.07;98.05
5455;BME280;2750;49.050;9.250;2023-04-28T21:00:35;98402.34;;;17.18;97.01
5455;BME280;2750;49.050;9.250;2023-04-28T21:05:39;98414.63;;;17.17;97.39
5455;BME280;2750;49.050;9.250;2023-04-28T21:10:42;98413.22;;;17.25;96.98
5455;BME280;2750;49.050;9.250;2023-04-28T21:15:43;98414.59;;;17.29;95.86
5455;BME280;2750;49.050;9.250;2023-04-28T21:20:45;98407.34;;;17.21;94.28
5455;BME280;2750;49.050;9.250;2023-04-28T21:25:48;98409.91;;;17.00;93.66
5455;BME280;2750;49.050;9.250;2023-04-28T21:30:50;98409.19;;;16.87;94.24
5455;BME280;2750;49.050;9.250;2023-04-28T21:35:52;98416.09;;;16.77;94.75
5455;BME280;2750;49.050;9.250;2023-04-28T21:40:54;98410.25;;;16.62;94.22
5455;BME280;2750;49.050;9.250;2023-04-28T21:45:56;98417.09;;;16.41;94.81
5455;BME280;2750;49.050;9.250;2023-04-28T21:50:58;98410.66;;;16.34;94.82
5455;BME280;2750;49.050;9.250;2023-04-28T21:56:01;98407.19;;;16.22;95.67
5455;BME280;2750;49.050;9.250;2023-04-28T22:01:03;98405.16;;;16.15;96.05
5455;BME280;2750;49.050;9.250;2023-04-28T22:06:05;98413.03;;;16.26;98.35
5455;BME280;2750;49.050;9.250;2023-04-28T22:11:08;98412.84;;;16.51;98.16
5455;BME280;2750;49.050;9.250;2023-04-28T22:16:10;98412.41;;;16.57;97.74
5455;BME280;2750;49.050;9.250;2023-04-28T22:21:12;98414.06;;;16.69;96.88
5455;BME280;2750;49.050;9.250;2023-04-28T22:26:15;98423.63;;;16.70;95.96
5455;BME280;2750;49.050;9.250;2023-04-28T22:31:18;98412.94;;;16.50;97.42
5455;BME280;2750;49.050;9.250;2023-04-28T22:36:19;98412.25;;;16.48;97.12
5455;BME280;2750;49.050;9.250;2023-04-28T22:41:23;98415.25;;;16.65;96.49
5455;BME280;2750;49.050;9.250;2023-04-28T22:46:25;98410.25;;;16.73;96.86
5455;BME280;2750;49.050;9.250;2023-04-28T22:51:26;98409.53;;;16.71;96.42
5455;BME280;2750;49.050;9.250;2023-04-28T22:56:29;98404.78;;;16.88;95.10
5455;BME280;2750;49.050;9.250;2023-04-28T23:01:30;98406.22;;;16.58;95.73
5455;BME280;2750;49.050;9.250;2023-04-28T23:06:32;98403.50;;;16.71;95.48
5455;BME280;2750;49.050;9.250;2023-04-28T23:11:35;98401.41;;;16.52;94.91
5455;BME280;2750;49.050;9.250;2023-04-28T23:16:36;98402.84;;;16.56;94.67
5455;BME280;2750;49.050;9.250;2023-04-28T23:21:38;98409.50;;;16.49;94.43
5455;BME280;2750;49.050;9.250;2023-04-28T23:26:40;98413.75;;;16.28;95.22
5455;BME280;2750;49.050;9.250;2023-04-28T23:31:42;98419.72;;;15.24;100.00
5455;BME280;2750;49.050;9.250;2023-04-28T23:36:43;98419.19;;;14.57;100.00
5455;BME280;2750;49.050;9.250;2023-04-28T23:41:46;98413.16;;;15.55;100.00
5455;BME280;2750;49.050;9.250;2023-04-28T23:46:48;98421.03;;;15.90;97.68
5455;BME280;2750;49.050;9.250;2023-04-28T23:51:49;98425.00;;;15.35;98.87
5455;BME280;2750;49.050;9.250;2023-04-28T23:56:53;98424.94;;;14.75;100.00
